sensor_id;sensor_type;location;lat;lon;timestamp;pressure;altitude;pressure_sealevel;temperature;humidity
11648;BME280;5880;52.342;9.662;2023-05-19T00:01:12;102109.22;;;16.07;37.79
11648;BME280;5880;52.342;9.662;2023-05-19T00:03:52;102099.03;;;16.07;37.89
11648;BME280;5880;52.342;9.662;2023-05-19T00:06:31;102103.94;;;16.05;37.87
11648;BME280;5880;52.342;9.662;2023-05-19T00:09:05;102092.06;;;16.04;37.95
11648;BME280;5880;52.342;9.662;2023-05-19T00:11:33;102103.31;;;16.03;37.71
11648;BME280;5880;52.342;9.662;2023-05-19T00:14:07;102115.19;;;16.03;38.02
11648;BME280;5880;52.342;9.662;2023-05-19T00:16:35;102107.38;;;16.00;37.97
11648;BME280;5880;52.342;9.662;2023-05-19T00:19:04;102107.16;;;16.02;38.28
11648;BME280;5880;52.342;9.662;2023-05-19T00:21:30;102104.63;;;16.00;38.32
11648;BME280;5880;52.342;9.662;2023-05-19T00:23:57;102101.25;;;15.98;38.25
11648;BME280;5880;52.342;9.662;2023-05-19T00:26:25;102093.47;;;15.95;38.53
11648;BME280;5880;52.342;9.662;2023-05-19T00:28:52;102103.41;;;15.96;38.12
11648;BME280;5880;52.342;9.662;2023-05-19T00:31:18;102096.06;;;15.90;38.40
11648;BME280;5880;52.342;9.662;2023-05-19T00:33:44;102107.47;;;15.94;38.34
11648;BME280;5880;52.342;9.662;2023-05-19T00:36:10;102100.50;;;15.91;38.44
11648;BME280;5880;52.342;9.662;2023-05-19T00:38:36;102090.44;;;15.85;38.30
11648;BME280;5880;52.342;9.662;2023-05-19T00:41:04;102094.63;;;15.88;38.57
11648;BME280;5880;52.342;9.662;2023-05-19T00:43:30;102084.53;;;15.81;38.53
11648;BME280;5880;52.342;9.662;2023-05-19T00:45:56;102084.31;;;15.83;38.59
11648;BME280;5880;52.342;9.662;2023-05-19T00:48:24;102087.88;;;15.83;38.66
11648;BME280;5880;52.342;9.662;2023-05-19T00:50:54;102094.47;;;15.82;38.56
11648;BME280;5880;52.342;9.662;2023-05-19T00:53:23;102087.50;;;15.80;38.73
11648;BME280;5880;52.342;9.662;2023-05-19T00:55:49;102085.81;;;15.79;38.63
11648;BME280;5880;52.342;9.662;2023-05-19T00:58:15;102083.75;;;15.74;38.57
11648;BME280;5880;52.342;9.662;2023-05-19T01:00:41;102090.13;;;15.75;38.67
11648;BME280;5880;52.342;9.662;2023-05-19T01:03:09;102090.38;;;15.73;38.85
11648;BME280;5880;52.342;9.662;2023-05-19T01:05:41;102086.75;;;15.73;38.99
11648;BME280;5880;52.342;9.662;2023-05-19T01:08:09;102068.81;;;15.63;38.94
11648;BME280;5880;52.342;9.662;2023-05-19T01:10:35;102068.59;;;15.65;39.27
11648;BME280;5880;52.342;9.662;2023-05-19T01:13:04;102075.19;;;15.64;39.11
11648;BME280;5880;52.342;9.662;2023-05-19T01:15:39;102084.44;;;15.70;39.23
11648;BME280;5880;52.342;9.662;2023-05-19T01:18:20;102083.19;;;15.66;39.10
11648;BME280;5880;52.342;9.662;2023-05-19T01:21:06;102085.50;;;15.69;39.15
11648;BME280;5880;52.342;9.662;2023-05-19T01:24:20;102089.41;;;15.61;39.37
11648;BME280;5880;52.342;9.662;2023-05-19T01:30:24;102081.75;;;15.63;39.11
11648;BME280;5880;52.342;9.662;2023-05-19T01:32:59;102074.16;;;15.58;39.34
11648;BME280;5880;52.342;9.662;2023-05-19T01:35:26;102074.88;;;15.54;39.40
11648;BME280;5880;52.342;9.662;2023-05-19T01:37:56;102081.38;;;15.59;39.49
11648;BME280;5880;52.342;9.662;2023-05-19T01:40:24;102092.63;;;15.58;39.51
11648;BME280;5880;52.342;9.662;2023-05-19T01:42:53;102085.44;;;15.57;39.30
11648;BME280;5880;52.342;9.662;2023-05-19T01:45:20;102077.63;;;15.54;39.50
11648;BME280;5880;52.342;9.662;2023-05-19T01:47:50;102082.75;;;15.50;39.54
11648;BME280;5880;52.342;9.662;2023-05-19T01:50:16;102092.69;;;15.51;39.58
11648;BME280;5880;52.342;9.662;2023-05-19T01:52:42;102097.59;;;15.49;39.43
11648;BME280;5880;52.342;9.662;2023-05-19T01:55:08;102097.22;;;15.46;39.30
11648;BME280;5880;52.342;9.662;2023-05-19T02:06:35;102094.06;;;15.24;39.34
11648;BME280;5880;52.342;9.662;2023-05-19T02:09:14;102084.19;;;15.16;39.58
11648;BME280;5880;52.342;9.662;2023-05-19T02:11:54;102098.78;;;15.16;39.57
11648;BME280;5880;52.342;9.662;2023-05-19T02:14:32;102086.16;;;15.09;39.56
11648;BME280;5880;52.342;9.662;2023-05-19T02:17:00;102092.50;;;15.09;39.68
11648;BME280;5880;52.342;9.662;2023-05-19T02:19:36;102089.13;;;15.07;39.64
11648;BME280;5880;52.342;9.662;2023-05-19T02:22:02;102085.38;;;15.02;39.69
11648;BME280;5880;52.342;9.662;2023-05-19T02:24:28;102093.88;;;15.00;39.79
11648;BME280;5880;52.342;9.662;2023-05-19T02:26:55;102095.38;;;14.96;39.78
11648;BME280;5880;52.342;9.662;2023-05-19T02:29:21;102082.91;;;14.93;39.77
11648;BME280;5880;52.342;9.662;2023-05-19T02:31:50;102081.91;;;14.88;39.72
11648;BME280;5880;52.342;9.662;2023-05-19T02:34:16;102067.38;;;14.81;39.80
11648;BME280;5880;52.342;9.662;2023-05-19T02:36:42;102085.34;;;14.83;39.75
11648;BME280;5880;52.342;9.662;2023-05-19T02:39:09;102078.16;;;14.82;39.95
11648;BME280;5880;52.342;9.662;2023-05-19T02:41:36;102076.53;;;14.74;39.86
11648;BME280;5880;52.342;9.662;2023-05-19T02:44:02;102074.63;;;14.75;39.92
11648;BME280;5880;52.342;9.662;2023-05-19T02:46:27;102074.00;;;14.73;39.95
11648;BME280;5880;52.342;9.662;2023-05-19T02:48:54;102072.56;;;14.70;39.98
11648;BME280;5880;52.342;9.662;2023-05-19T02:51:19;102073.22;;;14.66;39.98
11648;BME280;5880;52.342;9.662;2023-05-19T02:53:45;102069.22;;;14.62;40.13
11648;BME280;5880;52.342;9.662;2023-05-19T02:56:11;102075.38;;;14.64;40.01
11648;BME280;5880;52.342;9.662;2023-05-19T02:58:36;102064.19;;;14.59;40.21
11648;BME280;5880;52.342;9.662;2023-05-19T03:01:02;102066.69;;;14.60;40.06
11648;BME280;5880;52.342;9.662;2023-05-19T03:03:28;102056.38;;;14.49;40.17
11648;BME280;5880;52.342;9.662;2023-05-19T03:05:54;102064.63;;;14.55;40.17
11648;BME280;5880;52.342;9.662;2023-05-19T03:08:19;102067.38;;;14.49;40.37
11648;BME280;5880;52.342;9.662;2023-05-19T03:10:46;102065.50;;;14.49;40.30
11648;BME280;5880;52.342;9.662;2023-05-19T03:13:11;102062.75;;;14.49;40.44
11648;BME280;5880;52.342;9.662;2023-05-19T03:15:37;102062.97;;;14.48;40.38
11648;BME280;5880;52.342;9.662;2023-05-19T03:18:03;102058.75;;;14.45;40.45
11648;BME280;5880;52.342;9.662;2023-05-19T03:20:29;102053.69;;;14.42;40.45
11648;BME280;5880;52.342;9.662;2023-05-19T03:22:56;102069.13;;;14.43;40.46
11648;BME280;5880;52.342;9.662;2023-05-19T03:25:22;102057.34;;;14.36;40.44
11648;BME280;5880;52.342;9.662;2023-05-19T03:27:47;102057.72;;;14.40;40.58
11648;BME280;5880;52.342;9.662;2023-05-19T03:30:13;102064.28;;;14.39;40.58
11648;BME280;5880;52.342;9.662;2023-05-19T03:32:39;102047.38;;;14.35;40.69
11648;BME280;5880;52.342;9.662;2023-05-19T03:35:05;102062.63;;;14.38;40.52
11648;BME280;5880;52.342;9.662;2023-05-19T03:37:31;102064.50;;;14.37;40.61
11648;BME280;5880;52.342;9.662;2023-05-19T03:39:58;102069.38;;;14.35;40.70
11648;BME280;5880;52.342;9.662;2023-05-19T03:42:24;102064.13;;;14.33;40.69
11648;BME280;5880;52.342;9.662;2023-05-19T03:44:50;102067.31;;;14.30;40.76
11648;BME280;5880;52.342;9.662;2023-05-19T03:47:16;102061.81;;;14.30;40.75
11648;BME280;5880;52.342;9.662;2023-05-19T03:49:42;102055.75;;;14.22;40.92
11648;BME280;5880;52.342;9.662;2023-05-19T03:52:07;102057.03;;;14.19;40.82
11648;BME280;5880;52.342;9.662;2023-05-19T03:54:34;102072.25;;;14.22;40.83
11648;BME280;5880;52.342;9.662;2023-05-19T03:57:00;102071.41;;;14.21;40.83
11648;BME280;5880;52.342;9.662;2023-05-19T03:59:27;102072.06;;;14.17;40.77
11648;BME280;5880;52.342;9.662;2023-05-19T04:01:52;102060.88;;;14.11;40.84
11648;BME280;5880;52.342;9.662;2023-05-19T04:04:18;102051.16;;;14.09;40.88
11648;BME280;5880;52.342;9.662;2023-05-19T04:06:44;102056.44;;;14.10;40.94
11648;BME280;5880;52.342;9.662;2023-05-19T04:09:14;102065.09;;;14.14;41.10
11648;BME280;5880;52.342;9.662;2023-05-19T04:11:41;102060.28;;;14.09;41.25
11648;BME280;5880;52.342;9.662;2023-05-19T04:14:07;102066.38;;;14.11;41.19
11648;BME280;5880;52.342;9.662;2023-05-19T04:16:33;102064.91;;;14.09;41.21
11648;BME280;5880;52.342;9.662;2023-05-19T04:18:59;102057.56;;;14.03;41.18
11648;BME280;5880;52.342;9.662;2023-05-19T04:21:25;102066.19;;;14.06;41.20
11648;BME280;5880;52.342;9.662;2023-05-19T04:23:51;102071.28;;;14.09;41.52
11648;BME280;5880;52.342;9.662;2023-05-19T04:26:17;102081.19;;;14.10;41.58
11648;BME280;5880;52.342;9.662;2023-05-19T04:28:46;102076.53;;;14.11;41.51
11648;BME280;5880;52.342;9.662;2023-05-19T04:31:13;102074.88;;;14.10;41.51
11648;BME280;5880;52.342;9.662;2023-05-19T04:33:40;102063.44;;;14.06;41.60
11648;BME280;5880;52.342;9.662;2023-05-19T04:36:07;102084.56;;;14.12;41.54
11648;BME280;5880;52.342;9.662;2023-05-19T04:38:38;102075.69;;;14.10;41.42
11648;BME280;5880;52.342;9.662;2023-05-19T04:41:07;102073.16;;;14.09;41.54
11648;BME280;5880;52.342;9.662;2023-05-19T04:43:37;102076.53;;;14.11;41.60
11648;BME280;5880;52.342;9.662;2023-05-19T04:46:11;102087.78;;;14.09;41.67
11648;BME280;5880;52.342;9.662;2023-05-19T04:48:38;102079.31;;;14.04;41.97
11648;BME280;5880;52.342;9.662;2023-05-19T04:51:04;102086.47;;;14.12;41.82
11648;BME280;5880;52.342;9.662;2023-05-19T04:53:30;102084.78;;;14.11;41.82
11648;BME280;5880;52.342;9.662;2023-05-19T04:55:57;102087.09;;;14.14;41.73
11648;BME280;5880;52.342;9.662;2023-05-19T04:58:23;102089.81;;;14.14;41.93
11648;BME280;5880;52.342;9.662;2023-05-19T05:00:53;102085.19;;;14.14;41.81
11648;BME280;5880;52.342;9.662;2023-05-19T05:03:20;102084.97;;;14.16;41.82
11648;BME280;5880;52.342;9.662;2023-05-19T05:05:47;102081.16;;;14.17;41.94
11648;BME280;5880;52.342;9.662;2023-05-19T05:08:13;102084.53;;;14.19;42.04
11648;BME280;5880;52.342;9.662;2023-05-19T05:10:40;102074.19;;;14.14;42.08
11648;BME280;5880;52.342;9.662;2023-05-19T05:13:07;102078.59;;;14.22;42.01
11648;BME280;5880;52.342;9.662;2023-05-19T05:15:33;102083.25;;;14.22;42.15
11648;BME280;5880;52.342;9.662;2023-05-19T05:18:00;102079.84;;;14.26;42.20
11648;BME280;5880;52.342;9.662;2023-05-19T05:20:26;102079.59;;;14.28;42.40
11648;BME280;5880;52.342;9.662;2023-05-19T05:22:52;102065.84;;;14.28;42.46
11648;BME280;5880;52.342;9.662;2023-05-19T05:25:18;102080.84;;;14.32;42.66
11648;BME280;5880;52.342;9.662;2023-05-19T05:27:44;102082.06;;;14.43;42.78
11648;BME280;5880;52.342;9.662;2023-05-19T05:30:10;102078.38;;;14.49;43.04
11648;BME280;5880;52.342;9.662;2023-05-19T05:32:36;102084.03;;;14.61;43.28
11648;BME280;5880;52.342;9.662;2023-05-19T05:35:02;102082.88;;;14.75;43.99
11648;BME280;5880;52.342;9.662;2023-05-19T05:37:29;102072.31;;;14.97;44.50
11648;BME280;5880;52.342;9.662;2023-05-19T05:39:55;102071.94;;;15.30;45.04
11648;BME280;5880;52.342;9.662;2023-05-19T05:42:20;102079.09;;;15.75;45.58
11648;BME280;5880;52.342;9.662;2023-05-19T05:44:46;102072.00;;;16.28;45.71
11648;BME280;5880;52.342;9.662;2023-05-19T05:47:12;102069.59;;;16.97;45.89
11648;BME280;5880;52.342;9.662;2023-05-19T05:49:38;102079.34;;;17.75;45.64
11648;BME280;5880;52.342;9.662;2023-05-19T05:52:07;102076.72;;;18.54;45.81
11648;BME280;5880;52.342;9.662;2023-05-19T05:54:33;102079.84;;;19.31;45.63
11648;BME280;5880;52.342;9.662;2023-05-19T05:56:59;102070.47;;;19.98;45.01
11648;BME280;5880;52.342;9.662;2023-05-19T05:59:26;102077.25;;;20.66;44.55
11648;BME280;5880;52.342;9.662;2023-05-19T06:01:52;102072.97;;;21.28;44.11
11648;BME280;5880;52.342;9.662;2023-05-19T06:04:18;102086.34;;;22.00;43.56
11648;BME280;5880;52.342;9.662;2023-05-19T06:06:45;102074.75;;;22.54;42.70
11648;BME280;5880;52.342;9.662;2023-05-19T06:09:10;102085.06;;;23.25;42.06
11648;BME280;5880;52.342;9.662;2023-05-19T06:11:36;102089.28;;;23.88;41.56
11648;BME280;5880;52.342;9.662;2023-05-19T06:14:02;102073.91;;;24.40;41.17
11648;BME280;5880;52.342;9.662;2023-05-19T06:16:28;102077.50;;;24.80;39.90
11648;BME280;5880;52.342;9.662;2023-05-19T06:18:54;102066.88;;;25.06;39.30
11648;BME280;5880;52.342;9.662;2023-05-19T06:21:19;102075.44;;;25.44;38.83
11648;BME280;5880;52.342;9.662;2023-05-19T06:23:46;102075.59;;;25.77;38.45
11648;BME280;5880;52.342;9.662;2023-05-19T06:26:11;102070.03;;;26.15;38.32
11648;BME280;5880;52.342;9.662;2023-05-19T06:28:37;102068.34;;;26.51;37.65
11648;BME280;5880;52.342;9.662;2023-05-19T06:31:03;102067.72;;;26.87;37.27
11648;BME280;5880;52.342;9.662;2023-05-19T06:33:28;102074.38;;;27.24;36.39
11648;BME280;5880;52.342;9.662;2023-05-19T06:35:54;102066.16;;;27.42;35.76
11648;BME280;5880;52.342;9.662;2023-05-19T06:38:20;102073.75;;;27.55;35.28
11648;BME280;5880;52.342;9.662;2023-05-19T06:40:47;102064.78;;;27.67;34.85
11648;BME280;5880;52.342;9.662;2023-05-19T06:43:12;102064.06;;;27.89;34.62
11648;BME280;5880;52.342;9.662;2023-05-19T06:45:38;102057.81;;;27.92;33.93
11648;BME280;5880;52.342;9.662;2023-05-19T06:48:04;102066.03;;;27.88;33.49
11648;BME280;5880;52.342;9.662;2023-05-19T06:50:30;102062.59;;;27.91;33.51
11648;BME280;5880;52.342;9.662;2023-05-19T06:52:55;102065.16;;;28.02;33.48
11648;BME280;5880;52.342;9.662;2023-05-19T06:55:22;102067.50;;;28.22;32.96
11648;BME280;5880;52.342;9.662;2023-05-19T06:57:48;102067.59;;;28.31;32.51
11648;BME280;5880;52.342;9.662;2023-05-19T07:00:14;102061.81;;;28.36;32.16
11648;BME280;5880;52.342;9.662;2023-05-19T07:02:41;102061.81;;;28.50;32.37
11648;BME280;5880;52.342;9.662;2023-05-19T07:05:07;102059.78;;;28.73;32.02
11648;BME280;5880;52.342;9.662;2023-05-19T07:07:33;102062.03;;;28.85;31.58
11648;BME280;5880;52.342;9.662;2023-05-19T07:09:59;102069.28;;;28.86;31.41
11648;BME280;5880;52.342;9.662;2023-05-19T07:12:24;102071.00;;;28.95;31.01
11648;BME280;5880;52.342;9.662;2023-05-19T07:14:51;102056.16;;;29.03;30.67
11648;BME280;5880;52.342;9.662;2023-05-19T07:17:17;102050.47;;;29.26;30.73
11648;BME280;5880;52.342;9.662;2023-05-19T07:19:43;102063.50;;;29.53;30.55
11648;BME280;5880;52.342;9.662;2023-05-19T07:22:08;102067.63;;;29.56;30.63
11648;BME280;5880;52.342;9.662;2023-05-19T07:24:34;102054.84;;;29.41;30.20
11648;BME280;5880;52.342;9.662;2023-05-19T07:27:00;102056.28;;;29.30;29.90
11648;BME280;5880;52.342;9.662;2023-05-19T07:29:25;102063.06;;;29.20;30.08
11648;BME280;5880;52.342;9.662;2023-05-19T07:31:51;102052.25;;;29.13;30.23
11648;BME280;5880;52.342;9.662;2023-05-19T07:34:19;102055.06;;;29.13;30.28
11648;BME280;5880;52.342;9.662;2023-05-19T07:36:46;102050.16;;;28.96;30.01
11648;BME280;5880;52.342;9.662;2023-05-19T07:39:11;102055.81;;;28.74;30.01
11648;BME280;5880;52.342;9.662;2023-05-19T07:41:37;102054.63;;;28.66;30.01
11648;BME280;5880;52.342;9.662;2023-05-19T07:44:03;102043.50;;;28.61;30.37
11648;BME280;5880;52.342;9.662;2023-05-19T07:46:33;102052.34;;;28.68;30.00
11648;BME280;5880;52.342;9.662;2023-05-19T07:48:59;102046.88;;;28.72;29.91
11648;BME280;5880;52.342;9.662;2023-05-19T07:51:24;102047.84;;;28.67;29.37
11648;BME280;5880;52.342;9.662;2023-05-19T07:53:50;102045.72;;;28.28;28.57
11648;BME280;5880;52.342;9.662;2023-05-19T07:56:17;102037.22;;;27.69;29.05
11648;BME280;5880;52.342;9.662;2023-05-19T07:58:43;102030.81;;;27.27;29.12
11648;BME280;5880;52.342;9.662;2023-05-19T08:01:09;102038.88;;;26.87;29.56
11648;BME280;5880;52.342;9.662;2023-05-19T08:03:34;102030.31;;;26.45;29.36
11648;BME280;5880;52.342;9.662;2023-05-19T08:06:00;102031.13;;;26.13;29.69
11648;BME280;5880;52.342;9.662;2023-05-19T08:08:26;102039.66;;;25.84;29.97
11648;BME280;5880;52.342;9.662;2023-05-19T08:10:51;102042.19;;;25.61;30.06
11648;BME280;5880;52.342;9.662;2023-05-19T08:13:17;102030.19;;;25.37;30.08
11648;BME280;5880;52.342;9.662;2023-05-19T08:15:43;102028.28;;;25.08;30.12
11648;BME280;5880;52.342;9.662;2023-05-19T08:18:09;102032.03;;;24.93;30.28
11648;BME280;5880;52.342;9.662;2023-05-19T08:20:34;102039.94;;;24.86;30.65
11648;BME280;5880;52.342;9.662;2023-05-19T08:23:01;102034.69;;;24.79;31.18
11648;BME280;5880;52.342;9.662;2023-05-19T08:25:26;102028.13;;;24.70;31.43
11648;BME280;5880;52.342;9.662;2023-05-19T08:27:52;102030.91;;;24.70;31.09
11648;BME280;5880;52.342;9.662;2023-05-19T08:30:18;102034.31;;;24.62;30.94
11648;BME280;5880;52.342;9.662;2023-05-19T08:32:43;102030.97;;;24.60;31.22
11648;BME280;5880;52.342;9.662;2023-05-19T08:35:09;102035.25;;;24.52;31.37
11648;BME280;5880;52.342;9.662;2023-05-19T08:37:35;102030.84;;;24.41;31.12
11648;BME280;5880;52.342;9.662;2023-05-19T08:40:04;102027.00;;;24.32;31.32
11648;BME280;5880;52.342;9.662;2023-05-19T08:42:30;102021.25;;;24.18;30.96
11648;BME280;5880;52.342;9.662;2023-05-19T08:45:00;102020.72;;;24.11;31.51
11648;BME280;5880;52.342;9.662;2023-05-19T08:47:27;102019.38;;;24.08;31.43
11648;BME280;5880;52.342;9.662;2023-05-19T08:50:03;102017.44;;;24.04;31.80
11648;BME280;5880;52.342;9.662;2023-05-19T08:53:35;102009.19;;;23.88;31.62
11648;BME280;5880;52.342;9.662;2023-05-19T08:56:08;102002.25;;;23.75;31.74
11648;BME280;5880;52.342;9.662;2023-05-19T08:58:38;102012.84;;;23.73;31.75
11648;BME280;5880;52.342;9.662;2023-05-19T09:01:06;102010.09;;;23.68;31.91
11648;BME280;5880;52.342;9.662;2023-05-19T09:03:34;102003.16;;;23.60;31.66
11648;BME280;5880;52.342;9.662;2023-05-19T09:06:07;102006.81;;;23.56;31.50
11648;BME280;5880;52.342;9.662;2023-05-19T09:08:33;102009.34;;;23.47;31.56
11648;BME280;5880;52.342;9.662;2023-05-19T09:10:59;102010.25;;;23.37;31.63
11648;BME280;5880;52.342;9.662;2023-05-19T09:13:25;102002.16;;;23.36;31.60
11648;BME280;5880;52.342;9.662;2023-05-19T09:15:52;102006.84;;;23.46;31.67
11648;BME280;5880;52.342;9.662;2023-05-19T09:18:18;102012.09;;;23.63;31.61
11648;BME280;5880;52.342;9.662;2023-05-19T09:20:44;102005.66;;;23.62;31.54
11648;BME280;5880;52.342;9.662;2023-05-19T09:23:16;102001.78;;;23.58;31.25
11648;BME280;5880;52.342;9.662;2023-05-19T09:25:52;102002.13;;;23.46;31.58
11648;BME280;5880;52.342;9.662;2023-05-19T09:28:29;101989.06;;;23.31;31.57
11648;BME280;5880;52.342;9.662;2023-05-19T09:31:06;101988.53;;;23.24;31.91
11648;BME280;5880;52.342;9.662;2023-05-19T09:33:38;101998.88;;;23.18;31.79
11648;BME280;5880;52.342;9.662;2023-05-19T09:36:05;101990.25;;;23.10;31.91
11648;BME280;5880;52.342;9.662;2023-05-19T09:38:33;101987.53;;;23.00;31.98
11648;BME280;5880;52.342;9.662;2023-05-19T09:41:00;101978.59;;;22.92;31.85
11648;BME280;5880;52.342;9.662;2023-05-19T09:43:30;101976.66;;;22.88;32.17
11648;BME280;5880;52.342;9.662;2023-05-19T09:46:09;101982.78;;;22.90;32.07
11648;BME280;5880;52.342;9.662;2023-05-19T09:48:37;101972.47;;;22.90;32.35
11648;BME280;5880;52.342;9.662;2023-05-19T09:51:06;101979.97;;;22.95;32.14
11648;BME280;5880;52.342;9.662;2023-05-19T09:53:33;101971.06;;;22.88;32.36
11648;BME280;5880;52.342;9.662;2023-05-19T09:56:01;101953.78;;;22.86;32.25
11648;BME280;5880;52.342;9.662;2023-05-19T09:58:32;101972.72;;;22.94;32.24
11648;BME280;5880;52.342;9.662;2023-05-19T10:01:02;101977.47;;;22.88;31.82
11648;BME280;5880;52.342;9.662;2023-05-19T10:03:29;101974.16;;;22.81;31.83
11648;BME280;5880;52.342;9.662;2023-05-19T10:05:59;101965.78;;;22.81;32.12
11648;BME280;5880;52.342;9.662;2023-05-19T10:08:27;101966.63;;;22.82;32.08
11648;BME280;5880;52.342;9.662;2023-05-19T10:10:55;101951.88;;;22.76;31.95
11648;BME280;5880;52.342;9.662;2023-05-19T10:13:23;101952.97;;;22.75;31.74
11648;BME280;5880;52.342;9.662;2023-05-19T10:15:50;101955.47;;;22.82;31.96
11648;BME280;5880;52.342;9.662;2023-05-19T10:18:18;101957.13;;;22.83;32.38
11648;BME280;5880;52.342;9.662;2023-05-19T10:20:44;101950.16;;;22.80;32.13
11648;BME280;5880;52.342;9.662;2023-05-19T10:23:11;101953.50;;;22.82;32.09
11648;BME280;5880;52.342;9.662;2023-05-19T10:25:37;101952.97;;;22.80;31.84
11648;BME280;5880;52.342;9.662;2023-05-19T10:28:13;101956.28;;;22.82;31.66
11648;BME280;5880;52.342;9.662;2023-05-19T10:30:44;101947.38;;;22.80;31.86
11648;BME280;5880;52.342;9.662;2023-05-19T10:33:14;101944.31;;;22.82;31.60
11648;BME280;5880;52.342;9.662;2023-05-19T10:38:56;101940.97;;;22.90;32.06
11648;BME280;5880;52.342;9.662;2023-05-19T10:45:01;101942.91;;;22.94;31.58
11648;BME280;5880;52.342;9.662;2023-05-19T10:47:29;101929.25;;;22.83;31.28
11648;BME280;5880;52.342;9.662;2023-05-19T10:49:59;101926.47;;;22.83;31.40
11648;BME280;5880;52.342;9.662;2023-05-19T10:52:25;101916.44;;;22.87;31.34
11648;BME280;5880;52.342;9.662;2023-05-19T10:54:54;101913.09;;;22.85;31.12
11648;BME280;5880;52.342;9.662;2023-05-19T10:57:27;101913.63;;;22.87;31.21
11648;BME280;5880;52.342;9.662;2023-05-19T10:59:54;101917.81;;;22.94;31.32
11648;BME280;5880;52.342;9.662;2023-05-19T11:02:40;101908.91;;;22.87;30.81
11648;BME280;5880;52.342;9.662;2023-05-19T11:05:09;101913.94;;;22.85;30.81
11648;BME280;5880;52.342;9.662;2023-05-19T11:07:35;101908.38;;;22.80;31.10
11648;BME280;5880;52.342;9.662;2023-05-19T11:10:05;101913.38;;;22.88;31.03
11648;BME280;5880;52.342;9.662;2023-05-19T11:12:40;101910.56;;;22.99;31.21
11648;BME280;5880;52.342;9.662;2023-05-19T11:15:14;101913.03;;;23.05;31.19
11648;BME280;5880;52.342;9.662;2023-05-19T11:17:42;101909.13;;;23.11;31.24
11648;BME280;5880;52.342;9.662;2023-05-19T11:20:24;101913.53;;;23.17;30.94
11648;BME280;5880;52.342;9.662;2023-05-19T11:23:13;101903.25;;;23.18;30.94
11648;BME280;5880;52.342;9.662;2023-05-19T11:28:10;101916.63;;;23.16;30.57
11648;BME280;5880;52.342;9.662;2023-05-19T11:30:40;101899.28;;;23.24;31.09
11648;BME280;5880;52.342;9.662;2023-05-19T11:33:07;101901.50;;;23.32;31.18
11648;BME280;5880;52.342;9.662;2023-05-19T11:35:34;101896.66;;;23.43;30.79
11648;BME280;5880;52.342;9.662;2023-05-19T11:38:00;101903.88;;;23.49;30.44
11648;BME280;5880;52.342;9.662;2023-05-19T11:40:28;101897.16;;;23.55;29.85
11648;BME280;5880;52.342;9.662;2023-05-19T11:42:55;101894.06;;;23.57;30.31
11648;BME280;5880;52.342;9.662;2023-05-19T11:45:24;101884.28;;;23.59;29.96
11648;BME280;5880;52.342;9.662;2023-05-19T11:47:50;101877.59;;;23.60;30.37
11648;BME280;5880;52.342;9.662;2023-05-19T11:50:17;101881.75;;;23.63;30.15
11648;BME280;5880;52.342;9.662;2023-05-19T11:52:44;101874.78;;;23.60;29.77
11648;BME280;5880;52.342;9.662;2023-05-19T11:55:18;101879.19;;;23.67;29.65
11648;BME280;5880;52.342;9.662;2023-05-19T11:58:03;101884.81;;;23.62;29.67
11648;BME280;5880;52.342;9.662;2023-05-19T12:00:34;101881.25;;;23.56;29.43
11648;BME280;5880;52.342;9.662;2023-05-19T12:03:04;101883.50;;;23.54;29.70
11648;BME280;5880;52.342;9.662;2023-05-19T12:05:30;101883.44;;;23.59;29.65
11648;BME280;5880;52.342;9.662;2023-05-19T12:07:56;101882.91;;;23.57;29.19
11648;BME280;5880;52.342;9.662;2023-05-19T12:10:25;101869.00;;;23.52;29.25
11648;BME280;5880;52.342;9.662;2023-05-19T12:12:51;101872.59;;;23.52;29.13
11648;BME280;5880;52.342;9.662;2023-05-19T12:15:22;101866.75;;;23.54;29.11
11648;BME280;5880;52.342;9.662;2023-05-19T12:17:49;101872.31;;;23.54;29.21
11648;BME280;5880;52.342;9.662;2023-05-19T12:20:19;101875.06;;;23.59;29.22
11648;BME280;5880;52.342;9.662;2023-05-19T12:22:46;101877.28;;;23.62;29.87
11648;BME280;5880;52.342;9.662;2023-05-19T12:25:14;101857.75;;;23.62;29.60
11648;BME280;5880;52.342;9.662;2023-05-19T12:27:42;101869.94;;;23.71;29.17
11648;BME280;5880;52.342;9.662;2023-05-19T12:30:10;101861.56;;;23.71;29.03
11648;BME280;5880;52.342;9.662;2023-05-19T12:32:37;101863.31;;;23.67;29.00
11648;BME280;5880;52.342;9.662;2023-05-19T12:35:04;101856.00;;;23.71;29.37
11648;BME280;5880;52.342;9.662;2023-05-19T12:37:32;101856.84;;;23.77;29.62
11648;BME280;5880;52.342;9.662;2023-05-19T12:40:00;101850.94;;;23.78;29.02
11648;BME280;5880;52.342;9.662;2023-05-19T12:42:27;101851.22;;;23.82;28.83
11648;BME280;5880;52.342;9.662;2023-05-19T12:44:57;101853.13;;;23.87;29.08
11648;BME280;5880;52.342;9.662;2023-05-19T12:47:30;101855.63;;;23.88;29.20
11648;BME280;5880;52.342;9.662;2023-05-19T12:50:08;101859.47;;;23.92;29.20
11648;BME280;5880;52.342;9.662;2023-05-19T12:52:44;101847.25;;;23.88;28.74
11648;BME280;5880;52.342;9.662;2023-05-19T12:55:10;101865.41;;;23.86;28.55
11648;BME280;5880;52.342;9.662;2023-05-19T12:57:38;101859.31;;;23.78;28.41
11648;BME280;5880;52.342;9.662;2023-05-19T13:00:13;101851.50;;;23.80;28.53
11648;BME280;5880;52.342;9.662;2023-05-19T13:03:04;101862.09;;;23.78;28.62
11648;BME280;5880;52.342;9.662;2023-05-19T13:05:39;101840.44;;;23.65;28.37
11648;BME280;5880;52.342;9.662;2023-05-19T13:08:14;101847.44;;;23.63;28.32
11648;BME280;5880;52.342;9.662;2023-05-19T13:10:41;101834.34;;;23.58;28.53
11648;BME280;5880;52.342;9.662;2023-05-19T13:13:09;101844.94;;;23.61;28.64
11648;BME280;5880;52.342;9.662;2023-05-19T13:15:40;101832.63;;;23.62;28.77
11648;BME280;5880;52.342;9.662;2023-05-19T13:18:07;101832.84;;;23.71;29.10
11648;BME280;5880;52.342;9.662;2023-05-19T13:20:38;101840.63;;;23.79;28.61
11648;BME280;5880;52.342;9.662;2023-05-19T13:23:05;101832.25;;;23.79;28.76
11648;BME280;5880;52.342;9.662;2023-05-19T13:25:34;101835.56;;;23.81;28.37
11648;BME280;5880;52.342;9.662;2023-05-19T13:28:01;101829.75;;;23.77;28.38